Time;durP1;ratioP1;P1;durP2;ratioP2;P2;SDS_P1;SDS_P2;PMS_P1;PMS_P2;Temp;Humidity;BMP_temperature;BMP_pressure;BME280_temperature;BME280_humidity;BME280_pressure;Samples;Min_cycle;Max_cycle;Signal;HPM_P1;HPM_P2
2021/08/05 00:02:08;;;;;;;;;;;;;;;26.10;65.36;98721.34;5033733;28;19913;-76
2021/08/05 00:04:33;;;;;;;;;;;;;;;26.11;65.38;98715.50;5033434;28;19924;-76
2021/08/05 00:06:58;;;;;;;;;;;;;;;26.09;65.57;98714.31;5032083;28;19924;-75
2021/08/05 00:09:23;;;;;;;;;;;;;;;26.03;65.66;98722.09;5033253;28;19944;-77
2021/08/05 00:11:48;;;;;;;;;;;;;;;26.01;65.83;98725.22;5031734;28;19921;-75
2021/08/05 00:14:14;;;;;;;;;;;;;;;25.98;65.77;98728.72;5033291;28;19948;-76
2021/08/05 00:16:39;;;;;;;;;;;;;;;25.99;65.90;98722.06;5033179;28;20387;-76
2021/08/05 00:19:04;;;;;;;;;;;;;;;25.98;65.98;98722.47;5031813;28;19917;-78
2021/08/05 00:21:30;;;;;;;;;;;;;;;25.98;65.94;98725.97;5031576;28;19928;-78
2021/08/05 00:23:56;;;;;;;;;;;;;;;25.98;66.06;98725.97;5031801;28;19971;-75
2021/08/05 00:26:21;;;;;;;;;;;;;;;25.97;65.72;98720.91;5032595;28;19917;-77
2021/08/05 00:28:47;;;;;;;;;;;;;;;25.94;66.08;98721.66;5032854;28;20376;-75
2021/08/05 00:31:13;;;;;;;;;;;;;;;25.89;66.12;98723.63;5032574;28;19963;-76
2021/08/05 00:33:38;;;;;;;;;;;;;;;25.87;66.07;98722.44;5033105;28;19959;-75
2021/08/05 00:36:04;;;;;;;;;;;;;;;25.83;66.38;98725.16;5032400;28;19956;-76
2021/08/05 00:38:29;;;;;;;;;;;;;;;25.78;66.54;98730.22;5032473;28;19917;-77
2021/08/05 00:40:54;;;;;;;;;;;;;;;25.70;66.51;98732.94;5033001;28;19913;-77
2021/08/05 00:43:20;;;;;;;;;;;;;;;25.65;66.80;98721.59;5033381;28;19913;-78
2021/08/05 00:45:46;;;;;;;;;;;;;;;25.57;67.30;98732.53;5031204;28;20029;-77
2021/08/05 00:48:11;;;;;;;;;;;;;;;25.52;67.29;98732.91;5032865;28;19913;-78
2021/08/05 00:50:36;;;;;;;;;;;;;;;25.49;67.34;98733.66;5031310;28;19999;-78
2021/08/05 00:53:02;;;;;;;;;;;;;;;25.46;67.56;98728.94;5031706;28;20010;-78
2021/08/05 00:55:27;;;;;;;;;;;;;;;25.46;67.93;98728.94;5032316;28;19924;-78
2021/08/05 00:57:53;;;;;;;;;;;;;;;25.45;67.67;98724.66;5032587;28;19917;-78
2021/08/05 01:00:19;;;;;;;;;;;;;;;25.44;67.92;98723.06;5031411;28;20019;-78
2021/08/05 01:02:48;;;;;;;;;;;;;;;25.45;68.10;98719.19;5032629;28;19971;-78
2021/08/05 01:05:14;;;;;;;;;;;;;;;25.44;68.31;98725.00;5031112;28;20008;-78
2021/08/05 01:07:39;;;;;;;;;;;;;;;25.40;68.80;98725.00;5031154;28;20402;-78
2021/08/05 01:10:08;;;;;;;;;;;;;;;25.38;68.71;98719.13;5031440;28;19920;-78
2021/08/05 01:12:50;;;;;;;;;;;;;;;25.39;69.17;98715.25;5031080;28;19970;-76
2021/08/05 01:15:25;;;;;;;;;;;;;;;25.36;69.19;98711.25;5031782;28;19917;-76
2021/08/05 01:17:58;;;;;;;;;;;;;;;25.40;68.75;98709.38;5030511;28;20051;-76
2021/08/05 01:20:25;;;;;;;;;;;;;;;25.44;68.62;98717.59;5030810;28;20380;-77
2021/08/05 01:23:10;;;;;;;;;;;;;;;25.46;68.57;98715.25;5031545;28;19955;-76
2021/08/05 01:25:46;;;;;;;;;;;;;;;25.51;68.63;98712.16;5031634;28;20292;-76
2021/08/05 01:28:11;;;;;;;;;;;;;;;25.50;68.41;98705.09;5032228;28;19956;-75
2021/08/05 01:30:37;;;;;;;;;;;;;;;25.49;68.65;98710.97;5031709;28;19967;-75
2021/08/05 01:33:02;;;;;;;;;;;;;;;25.50;68.60;98709.78;5031793;28;20442;-75
2021/08/05 01:35:29;;;;;;;;;;;;;;;25.52;68.32;98716.47;5031454;28;19921;-76
2021/08/05 01:37:55;;;;;;;;;;;;;;;25.57;68.04;98712.56;5031547;28;19924;-76
2021/08/05 01:40:21;;;;;;;;;;;;;;;25.59;68.15;98710.22;5031835;28;19913;-76
2021/08/05 01:42:46;;;;;;;;;;;;;;;25.58;68.43;98711.38;5031648;28;19913;-75
2021/08/05 01:45:13;;;;;;;;;;;;;;;25.54;68.54;98708.63;5031828;28;20387;-76
2021/08/05 01:47:40;;;;;;;;;;;;;;;25.51;68.88;98711.34;5031646;28;20066;-77
2021/08/05 01:50:06;;;;;;;;;;;;;;;25.47;68.87;98707.84;5031692;28;19959;-76
2021/08/05 01:52:31;;;;;;;;;;;;;;;25.42;69.35;98704.28;5031141;28;20411;-77
2021/08/05 01:54:56;;;;;;;;;;;;;;;25.36;69.97;98708.53;5031237;28;19917;-76
2021/08/05 01:57:22;;;;;;;;;;;;;;;25.36;70.03;98705.00;5030356;28;19978;-76
2021/08/05 01:59:47;;;;;;;;;;;;;;;25.36;69.96;98707.75;5031794;28;19920;-75
2021/08/05 02:02:13;;;;;;;;;;;;;;;25.34;70.02;98705.41;5031057;28;19924;-75
2021/08/05 02:04:57;;;;;;;;;;;;;;;25.34;70.02;98701.88;5031448;28;19995;-76
2021/08/05 02:07:29;;;;;;;;;;;;;;;25.32;69.87;98704.22;5031555;28;20031;-75
2021/08/05 02:10:04;;;;;;;;;;;;;;;25.33;69.95;98695.63;5031139;28;19920;-75
2021/08/05 02:12:38;;;;;;;;;;;;;;;25.26;70.24;98695.59;5031253;28;19921;-75
2021/08/05 02:15:04;;;;;;;;;;;;;;;25.25;69.84;98692.09;5029848;28;20415;-75
2021/08/05 02:17:35;;;;;;;;;;;;;;;25.24;70.03;98701.44;5031505;28;20015;-76
2021/08/05 02:20:00;;;;;;;;;;;;;;;25.23;69.77;98697.13;5031079;28;20289;-75
2021/08/05 02:22:26;;;;;;;;;;;;;;;25.22;69.92;98705.75;5031106;28;20019;-75
2021/08/05 02:24:51;;;;;;;;;;;;;;;25.19;69.65;98706.50;5029597;28;19921;-76
2021/08/05 02:27:17;;;;;;;;;;;;;;;25.18;69.93;98702.19;5031681;28;20015;-75
2021/08/05 02:29:42;;;;;;;;;;;;;;;25.15;69.91;98700.22;5031052;28;19913;-75
2021/08/05 02:32:08;;;;;;;;;;;;;;;25.14;70.05;98701.41;5035063;28;19917;-75
2021/08/05 02:34:35;;;;;;;;;;;;;;;25.17;69.89;98700.59;5035113;28;19975;-75
2021/08/05 02:37:00;;;;;;;;;;;;;;;25.16;69.86;98705.31;5034921;28;19948;-75
2021/08/05 02:39:26;;;;;;;;;;;;;;;25.14;69.64;98706.88;5033938;28;19955;-76
2021/08/05 02:41:51;;;;;;;;;;;;;;;25.13;69.86;98706.06;5035056;28;19917;-75
2021/08/05 02:44:17;;;;;;;;;;;;;;;25.10;69.60;98712.31;5035445;28;20296;-75
2021/08/05 02:46:42;;;;;;;;;;;;;;;25.10;68.67;98709.56;5034826;28;19913;-75
2021/08/05 02:49:08;;;;;;;;;;;;;;;25.09;67.33;98719.72;5034591;28;19975;-75
2021/08/05 02:51:35;;;;;;;;;;;;;;;25.11;66.84;98711.16;5034708;28;20311;-75
2021/08/05 02:54:01;;;;;;;;;;;;;;;25.13;66.12;98716.22;5034895;28;19917;-75
2021/08/05 02:56:26;;;;;;;;;;;;;;;25.14;65.68;98713.09;5034642;28;19923;-75
2021/08/05 02:58:52;;;;;;;;;;;;;;;25.13;65.77;98714.28;5034328;28;20260;-75
2021/08/05 03:01:19;;;;;;;;;;;;;;;25.13;66.39;98717.00;5034752;28;19917;-75
2021/08/05 03:03:44;;;;;;;;;;;;;;;25.13;66.62;98711.53;5034598;28;19921;-75
2021/08/05 03:06:10;;;;;;;;;;;;;;;25.10;67.07;98704.88;5034776;28;19920;-75
2021/08/05 03:08:42;;;;;;;;;;;;;;;25.10;67.97;98715.81;5034702;28;19913;-75
2021/08/05 03:11:07;;;;;;;;;;;;;;;25.05;68.53;98713.47;5034649;28;19920;-77
2021/08/05 03:13:32;;;;;;;;;;;;;;;25.05;68.84;98718.16;5032793;28;19917;-76
2021/08/05 03:15:58;;;;;;;;;;;;;;;24.99;69.15;98716.94;5033033;28;19913;-76
2021/08/05 03:18:23;;;;;;;;;;;;;;;24.92;70.06;98714.94;5034265;28;19979;-76
2021/08/05 03:20:48;;;;;;;;;;;;;;;24.85;70.16;98723.88;5034296;28;20430;-76
2021/08/05 03:23:13;;;;;;;;;;;;;;;24.86;70.29;98722.69;5034337;28;19917;-75
2021/08/05 03:25:38;;;;;;;;;;;;;;;24.86;70.63;98719.19;5032346;28;19921;-75
2021/08/05 03:28:04;;;;;;;;;;;;;;;24.81;71.01;98725.03;5034392;28;19971;-75
2021/08/05 03:30:29;;;;;;;;;;;;;;;24.76;71.45;98724.19;5032621;28;19960;-76
2021/08/05 03:32:55;;;;;;;;;;;;;;;24.75;71.46;98728.09;5033606;28;19917;-75
2021/08/05 03:35:20;;;;;;;;;;;;;;;24.69;71.81;98718.66;5034074;28;19916;-76
2021/08/05 03:37:45;;;;;;;;;;;;;;;24.68;71.82;98724.53;5032853;28;20316;-75
2021/08/05 03:40:11;;;;;;;;;;;;;;;24.66;71.97;98721.38;5034120;28;19923;-76
2021/08/05 03:42:36;;;;;;;;;;;;;;;24.70;71.88;98728.44;5031705;28;20364;-76
2021/08/05 03:45:01;;;;;;;;;;;;;;;24.71;72.13;98721.03;5033366;28;19979;-75
2021/08/05 03:47:27;;;;;;;;;;;;;;;24.73;72.17;98718.69;5029124;28;19913;-75
2021/08/05 03:49:52;;;;;;;;;;;;;;;24.75;72.22;98727.31;5013819;28;19917;-75
2021/08/05 03:52:17;;;;;;;;;;;;;;;24.84;71.72;98736.00;5014204;28;20068;-75
2021/08/05 03:54:42;;;;;;;;;;;;;;;24.96;71.40;98731.38;5013508;28;19921;-75
2021/08/05 03:57:08;;;;;;;;;;;;;;;25.03;71.26;98728.69;5031709;28;20014;-75
2021/08/05 03:59:34;;;;;;;;;;;;;;;25.15;70.57;98730.31;5032380;28;19924;-73
2021/08/05 04:01:59;;;;;;;;;;;;;;;25.21;70.39;98728.78;5033526;28;19952;-75
2021/08/05 04:04:24;;;;;;;;;;;;;;;25.29;69.97;98727.66;5033392;28;20003;-78
2021/08/05 04:06:50;;;;;;;;;;;;;;;25.38;69.84;98727.34;5027799;28;19984;-82
2021/08/05 04:09:15;;;;;;;;;;;;;;;25.47;69.50;98727.78;5029054;28;20403;-81
2021/08/05 04:11:40;;;;;;;;;;;;;;;25.63;69.07;98724.69;5030071;28;19928;-81
2021/08/05 04:14:06;;;;;;;;;;;;;;;25.82;68.69;98731.03;5031481;28;19925;-79
2021/08/05 04:16:31;;;;;;;;;;;;;;;25.99;67.86;98724.81;5032201;28;20008;-81
2021/08/05 04:18:56;;;;;;;;;;;;;;;26.17;67.41;98738.59;5033197;28;19913;-85
2021/08/05 04:21:21;;;;;;;;;;;;;;;26.31;66.82;98737.03;5031832;28;19913;-82
2021/08/05 04:23:47;;;;;;;;;;;;;;;26.41;66.29;98730.00;5031730;28;19953;-81
2021/08/05 04:26:12;;;;;;;;;;;;;;;26.57;65.79;98722.16;5033125;28;20051;-84
2021/08/05 04:28:37;;;;;;;;;;;;;;;26.73;65.17;98721.75;5031955;28;20367;-83
2021/08/05 04:31:03;;;;;;;;;;;;;;;26.90;64.61;98724.91;5031715;28;19912;-84
2021/08/05 04:33:28;;;;;;;;;;;;;;;27.06;64.24;98727.25;5032936;28;19919;-84
2021/08/05 04:35:53;;;;;;;;;;;;;;;27.18;63.66;98721.31;5032965;28;20439;-84
2021/08/05 04:38:19;;;;;;;;;;;;;;;27.39;62.73;98714.19;5031826;28;19940;-85
2021/08/05 04:40:44;;;;;;;;;;;;;;;27.59;62.30;98728.28;5031515;28;20056;-85
2021/08/05 04:43:09;;;;;;;;;;;;;;;27.77;61.65;98718.00;5031583;28;19936;-85
2021/08/05 04:45:35;;;;;;;;;;;;;;;27.89;61.20;98721.47;5031347;28;19914;-84
2021/08/05 04:48:01;;;;;;;;;;;;;;;28.12;59.89;98720.94;5031103;28;19913;-83
2021/08/05 04:50:28;;;;;;;;;;;;;;;28.23;58.65;98724.41;5031419;28;20288;-84
2021/08/05 04:52:54;;;;;;;;;;;;;;;28.35;58.22;98728.66;5030538;28;19913;-85
2021/08/05 04:55:20;;;;;;;;;;;;;;;28.52;57.88;98723.44;5031338;28;20007;-85
2021/08/05 04:57:53;;;;;;;;;;;;;;;28.78;57.54;98726.75;5031289;28;20392;-85
2021/08/05 05:00:22;;;;;;;;;;;;;;;29.02;56.86;98719.47;5031379;28;19935;-86
2021/08/05 05:02:48;;;;;;;;;;;;;;;29.21;55.76;98716.09;5031134;28;19975;-85
2021/08/05 05:05:13;;;;;;;;;;;;;;;29.40;55.01;98711.19;5030999;28;19913;-85
2021/08/05 05:07:38;;;;;;;;;;;;;;;29.64;54.36;98709.31;5031316;28;19921;-85
2021/08/05 05:10:04;;;;;;;;;;;;;;;29.87;53.53;98716.09;5030969;28;20387;-85
2021/08/05 05:12:29;;;;;;;;;;;;;;;30.11;52.45;98716.94;5031280;28;19921;-85
2021/08/05 05:14:54;;;;;;;;;;;;;;;30.37;51.95;98709.09;5030866;28;19913;-85
2021/08/05 05:17:20;;;;;;;;;;;;;;;30.60;51.17;98715.81;5031019;28;20273;-84
2021/08/05 05:19:45;;;;;;;;;;;;;;;30.74;50.34;98712.81;5030742;28;19920;-84
2021/08/05 05:22:10;;;;;;;;;;;;;;;30.95;49.40;98716.41;5030834;28;20422;-84
2021/08/05 05:24:35;;;;;;;;;;;;;;;31.01;49.56;98725.75;5032593;28;19920;-86
2021/08/05 05:27:01;;;;;;;;;;;;;;;31.25;48.89;98720.19;5030471;28;19971;-86
2021/08/05 05:29:26;;;;;;;;;;;;;;;31.49;48.41;98709.84;5031975;28;19913;-88
2021/08/05 05:31:54;;;;;;;;;;;;;;;31.76;47.47;98709.69;5031310;28;19913;-87
2021/08/05 05:34:19;;;;;;;;;;;;;;;32.06;46.78;98704.31;5031100;28;19917;-87
2021/08/05 05:36:45;;;;;;;;;;;;;;;32.35;45.91;98706.41;5030802;28;19919;-86
2021/08/05 05:39:10;;;;;;;;;;;;;;;32.66;45.25;98703.28;5030972;28;19913;-86
2021/08/05 05:41:35;;;;;;;;;;;;;;;32.97;44.69;98698.13;5031566;28;19913;-87
2021/08/05 05:44:00;;;;;;;;;;;;;;;33.28;43.34;98708.75;5030359;28;19917;-86
2021/08/05 05:46:27;;;;;;;;;;;;;;;33.58;43.03;98701.19;5030798;28;20256;-88
2021/08/05 05:48:52;;;;;;;;;;;;;;;33.87;42.26;98699.56;5030692;28;19913;-86
2021/08/05 05:51:17;;;;;;;;;;;;;;;34.15;41.35;98697.88;5031720;28;19913;-86
2021/08/05 05:53:42;;;;;;;;;;;;;;;34.07;41.24;98699.31;5030722;28;19967;-87
2021/08/05 05:56:10;;;;;;;;;;;;;;;34.03;41.55;98695.91;5030490;28;19913;-86
2021/08/05 05:58:35;;;;;;;;;;;;;;;34.12;41.59;98691.22;5030721;28;19913;-86
2021/08/05 06:01:00;;;;;;;;;;;;;;;34.24;41.17;98692.44;5030335;28;19917;-86
2021/08/05 06:03:25;;;;;;;;;;;;;;;34.28;41.02;98690.31;5030521;28;19966;-87
2021/08/05 06:05:51;;;;;;;;;;;;;;;34.39;40.75;98689.22;5030278;28;19913;-87
2021/08/05 06:08:16;;;;;;;;;;;;;;;34.55;40.24;98694.59;5030507;28;19913;-86
2021/08/05 06:10:41;;;;;;;;;;;;;;;34.73;39.91;98690.44;5030448;28;19912;-87
2021/08/05 06:13:07;;;;;;;;;;;;;;;34.91;39.18;98692.63;5030025;28;19921;-86
2021/08/05 06:15:32;;;;;;;;;;;;;;;34.92;39.46;98685.84;5030501;28;19916;-86
2021/08/05 06:17:57;;;;;;;;;;;;;;;34.90;39.45;98682.72;5030279;28;19971;-86
2021/08/05 06:20:22;;;;;;;;;;;;;;;35.04;38.66;98676.66;5030397;28;19914;-87
2021/08/05 06:22:48;;;;;;;;;;;;;;;35.18;37.91;98678.16;5030061;28;19971;-86
2021/08/05 06:25:14;;;;;;;;;;;;;;;35.26;37.89;98667.53;5030228;28;19917;-87
2021/08/05 06:27:40;;;;;;;;;;;;;;;35.36;37.74;98666.34;5030272;28;20012;-88
2021/08/05 06:30:06;;;;;;;;;;;;;;;35.46;37.32;98674.78;5029980;28;19913;-87
2021/08/05 06:32:31;;;;;;;;;;;;;;;35.52;37.71;98665.41;5029974;28;19913;-88
2021/08/05 06:34:56;;;;;;;;;;;;;;;35.65;37.52;98662.50;5030094;28;19971;-87
2021/08/05 06:37:22;;;;;;;;;;;;;;;35.70;37.92;98656.34;5030375;28;19970;-87
2021/08/05 06:39:47;;;;;;;;;;;;;;;35.79;37.38;98661.19;5030113;28;19917;-88
2021/08/05 06:42:12;;;;;;;;;;;;;;;35.88;37.47;98660.44;5030013;28;20407;-89
2021/08/05 06:44:38;;;;;;;;;;;;;;;35.92;37.07;98657.53;5029941;28;20288;-88
2021/08/05 06:47:04;;;;;;;;;;;;;;;35.88;37.05;98655.66;5029975;28;19919;-88
2021/08/05 06:49:29;;;;;;;;;;;;;;;35.65;37.57;98656.19;5030000;28;19917;-88
2021/08/05 06:51:55;;;;;;;;;;;;;;;35.38;37.75;98658.38;5029665;28;19920;-88
2021/08/05 06:54:20;;;;;;;;;;;;;;;35.02;38.72;98656.13;5030063;28;19913;-88
2021/08/05 06:56:45;;;;;;;;;;;;;;;34.86;38.85;98655.03;5030051;28;20004;-88
2021/08/05 06:59:13;;;;;;;;;;;;;;;34.71;39.09;98652.00;5029765;28;19920;-88
2021/08/05 07:01:38;;;;;;;;;;;;;;;34.57;39.52;98646.94;5030548;28;20355;-88
2021/08/05 07:04:03;;;;;;;;;;;;;;;34.58;39.29;98643.75;5030427;28;19913;-88
2021/08/05 07:06:29;;;;;;;;;;;;;;;34.52;39.66;98645.53;5029937;28;20007;-88
2021/08/05 07:08:54;;;;;;;;;;;;;;;34.50;39.54;98636.88;5029913;28;19913;-88
2021/08/05 07:11:19;;;;;;;;;;;;;;;34.52;39.77;98641.97;5029828;28;19920;-88
2021/08/05 07:13:45;;;;;;;;;;;;;;;34.52;39.15;98630.88;5029941;28;19975;-88
2021/08/05 07:16:10;;;;;;;;;;;;;;;34.56;39.26;98634.28;5030537;28;19967;-88
2021/08/05 07:18:35;;;;;;;;;;;;;;;34.61;38.65;98628.94;5034766;28;19920;-87
2021/08/05 07:21:01;;;;;;;;;;;;;;;34.62;38.67;98627.72;5033681;28;20410;-85
2021/08/05 07:23:27;;;;;;;;;;;;;;;34.57;38.39;98621.97;5033474;28;20324;-85
2021/08/05 07:25:52;;;;;;;;;;;;;;;34.50;39.01;98625.78;5032995;28;19970;-86
2021/08/05 07:28:18;;;;;;;;;;;;;;;34.41;38.74;98615.38;5033283;28;19913;-89
2021/08/05 07:30:43;;;;;;;;;;;;;;;34.43;39.04;98615.69;5033315;28;20291;-88
2021/08/05 07:33:08;;;;;;;;;;;;;;;34.45;38.72;98620.81;5032964;28;19935;-88
2021/08/05 07:35:33;;;;;;;;;;;;;;;34.42;38.85;98605.81;5033176;28;19913;-87
2021/08/05 07:37:59;;;;;;;;;;;;;;;34.44;38.74;98605.38;5032925;28;19925;-87
2021/08/05 07:40:24;;;;;;;;;;;;;;;34.45;39.05;98604.16;5033238;28;19919;-88
2021/08/05 07:42:50;;;;;;;;;;;;;;;34.49;38.61;98599.25;5033066;28;19967;-89
2021/08/05 07:45:15;;;;;;;;;;;;;;;34.46;38.38;98589.81;5032532;28;19913;-89
2021/08/05 07:47:40;;;;;;;;;;;;;;;34.44;38.20;98597.03;5032901;28;19967;-87
2021/08/05 07:50:08;;;;;;;;;;;;;;;34.40;38.18;98593.59;5032347;28;20427;-87
2021/08/05 07:52:34;;;;;;;;;;;;;;;34.41;38.26;98595.94;5032547;28;19935;-88
2021/08/05 07:55:03;;;;;;;;;;;;;;;34.44;37.08;98592.25;5032540;28;20359;-88
2021/08/05 07:57:30;;;;;;;;;;;;;;;34.49;36.39;98595.69;5032651;28;19913;-88
2021/08/05 07:59:56;;;;;;;;;;;;;;;34.47;36.03;98590.56;5032465;28;19913;-88
2021/08/05 08:02:21;;;;;;;;;;;;;;;34.47;36.01;98590.56;5032632;28;19913;-86
2021/08/05 08:04:46;;;;;;;;;;;;;;;34.40;36.50;98594.41;5032568;28;19920;-86
2021/08/05 08:07:12;;;;;;;;;;;;;;;34.38;36.62;98587.75;5031950;28;20449;-87
2021/08/05 08:09:37;;;;;;;;;;;;;;;34.31;36.43;98586.75;5032446;28;19920;-87
2021/08/05 08:12:02;;;;;;;;;;;;;;;34.29;36.89;98582.88;5032298;28;19913;-89
2021/08/05 08:14:28;;;;;;;;;;;;;;;34.27;36.97;98588.84;5032385;28;20003;-89
2021/08/05 08:16:53;;;;;;;;;;;;;;;34.24;36.58;98588.97;5032350;28;20003;-88
2021/08/05 08:19:18;;;;;;;;;;;;;;;34.21;37.39;98582.31;5031901;28;19917;-86
2021/08/05 08:21:44;;;;;;;;;;;;;;;34.11;37.61;98575.16;5032094;28;20010;-87
2021/08/05 08:24:10;;;;;;;;;;;;;;;33.94;37.51;98577.31;5031727;28;20371;-88
2021/08/05 08:26:36;;;;;;;;;;;;;;;33.82;37.63;98562.97;5031910;28;19956;-88
2021/08/05 08:29:02;;;;;;;;;;;;;;;33.76;37.45;98570.28;5030621;28;20383;-87
2021/08/05 08:31:27;;;;;;;;;;;;;;;33.75;37.62;98563.22;5031843;28;19913;-88
2021/08/05 08:33:53;;;;;;;;;;;;;;;33.74;37.57;98558.09;5031791;28;20004;-87
2021/08/05 08:36:18;;;;;;;;;;;;;;;33.77;37.77;98557.22;5031510;28;19913;-89
2021/08/05 08:38:43;;;;;;;;;;;;;;;33.78;37.67;98551.22;5031782;28;19920;-89
2021/08/05 08:41:11;;;;;;;;;;;;;;;33.79;37.81;98546.44;5031389;28;19917;-88
2021/08/05 08:43:36;;;;;;;;;;;;;;;33.82;37.71;98545.56;5031565;28;19913;-88
2021/08/05 08:46:02;;;;;;;;;;;;;;;33.81;37.59;98547.56;5031258;28;19913;-87
2021/08/05 08:48:28;;;;;;;;;;;;;;;33.85;37.63;98550.25;5031572;28;19913;-88
2021/08/05 08:50:54;;;;;;;;;;;;;;;33.91;37.45;98548.47;5031362;28;19947;-85
2021/08/05 08:53:25;;;;;;;;;;;;;;;33.86;37.47;98534.38;5032526;28;20051;-88
2021/08/05 08:55:50;;;;;;;;;;;;;;;33.86;37.70;98539.94;5031426;28;19913;-88
2021/08/05 08:58:17;;;;;;;;;;;;;;;33.82;36.73;98537.25;5031132;28;19917;-86
2021/08/05 09:00:42;;;;;;;;;;;;;;;33.83;36.59;98530.50;5031244;28;19913;-87
2021/08/05 09:03:08;;;;;;;;;;;;;;;33.90;36.48;98521.16;5031101;28;19913;-88
2021/08/05 09:05:33;;;;;;;;;;;;;;;33.96;36.90;98517.38;5031255;28;20131;-86
2021/08/05 09:08:00;;;;;;;;;;;;;;;34.01;37.05;98516.03;5031276;28;19923;-84
2021/08/05 09:10:25;;;;;;;;;;;;;;;34.03;35.97;98513.56;5031560;28;19948;-85
2021/08/05 09:12:54;;;;;;;;;;;;;;;33.96;36.27;98509.06;5031287;28;19970;-87
2021/08/05 09:15:52;;;;;;;;;;;;;;;33.96;36.26;98499.94;5032288;28;20347;-87
2021/08/05 09:18:35;;;;;;;;;;;;;;;33.99;35.86;98505.38;5008492;28;19916;-86
2021/08/05 09:21:03;;;;;;;;;;;;;;;33.99;35.71;98499.81;5030684;28;19913;-84
2021/08/05 09:23:44;;;;;;;;;;;;;;;34.05;35.63;98491.72;5030907;28;20372;-85
2021/08/05 09:26:21;;;;;;;;;;;;;;;34.15;36.19;98482.25;5030358;28;20304;-85
2021/08/05 09:28:58;;;;;;;;;;;;;;;34.30;35.67;98478.94;5030774;28;19919;-83
2021/08/05 09:31:23;;;;;;;;;;;;;;;34.36;35.44;98465.28;5030618;28;19948;-82
2021/08/05 09:33:48;;;;;;;;;;;;;;;34.46;35.23;98458.56;5030641;28;19963;-87
2021/08/05 09:36:24;;;;;;;;;;;;;;;34.50;35.08;98455.66;5030316;28;19913;-86
2021/08/05 09:38:49;;;;;;;;;;;;;;;34.55;34.34;98449.53;5030224;28;19920;-87
2021/08/05 09:41:14;;;;;;;;;;;;;;;34.58;34.72;98448.59;5030037;28;19920;-86
2021/08/05 09:43:40;;;;;;;;;;;;;;;34.61;34.21;98440.13;5030580;28;19987;-83
2021/08/05 09:46:05;;;;;;;;;;;;;;;34.66;34.54;98430.44;5030219;28;19943;-85
2021/08/05 09:48:34;;;;;;;;;;;;;;;34.74;34.50;98425.38;5030536;28;19917;-85
2021/08/05 09:51:05;;;;;;;;;;;;;;;34.79;33.68;98439.47;5030219;28;19917;-84
2021/08/05 09:53:31;;;;;;;;;;;;;;;34.87;34.16;98414.19;5030463;28;19920;-87
2021/08/05 09:56:11;;;;;;;;;;;;;;;34.97;33.33;98415.78;5030449;28;19913;-88
2021/08/05 09:58:38;;;;;;;;;;;;;;;35.05;32.74;98411.47;5030420;28;19913;-86
2021/08/05 10:01:07;;;;;;;;;;;;;;;35.11;32.05;98398.53;5030191;28;19913;-88
2021/08/05 10:03:34;;;;;;;;;;;;;;;35.22;32.30;98408.44;5030059;28;19913;-85
2021/08/05 10:06:01;;;;;;;;;;;;;;;35.30;30.34;98406.13;5030240;28;20416;-86
2021/08/05 10:08:52;;;;;;;;;;;;;;;35.38;30.48;98399.84;5030274;28;19913;-88
2021/08/05 10:11:18;;;;;;;;;;;;;;;35.52;29.13;98386.56;5027929;28;20444;-87
2021/08/05 10:13:43;;;;;;;;;;;;;;;35.64;29.40;98388.41;5030367;28;20012;-88
2021/08/05 10:16:10;;;;;;;;;;;;;;;35.77;28.47;98393.84;5030338;28;19917;-88
2021/08/05 10:18:36;;;;;;;;;;;;;;;35.87;27.68;98380.69;5030120;28;19920;-88
2021/08/05 10:21:02;;;;;;;;;;;;;;;35.95;27.49;98373.59;5029937;28;19917;-86
2021/08/05 10:23:28;;;;;;;;;;;;;;;36.04;27.51;98370.78;5030301;28;19920;-86
2021/08/05 10:25:59;;;;;;;;;;;;;;;36.13;27.00;98364.41;5029964;28;20311;-88
2021/08/05 10:28:25;;;;;;;;;;;;;;;36.20;26.61;98358.53;5029828;28;19913;-88
2021/08/05 10:30:51;;;;;;;;;;;;;;;36.29;27.03;98348.59;5029836;28;19924;-87
2021/08/05 10:33:16;;;;;;;;;;;;;;;36.36;26.69;98351.06;5029934;28;19971;-88
2021/08/05 10:35:42;;;;;;;;;;;;;;;36.46;26.80;98341.47;5030078;28;19913;-87
2021/08/05 10:38:07;;;;;;;;;;;;;;;36.52;26.78;98331.22;5029837;28;19913;-83
2021/08/05 10:40:33;;;;;;;;;;;;;;;36.58;26.66;98330.59;5029957;28;20296;-86
2021/08/05 10:42:59;;;;;;;;;;;;;;;36.59;26.27;98323.78;5029934;28;20343;-82
2021/08/05 10:45:26;;;;;;;;;;;;;;;36.62;25.61;98314.47;5029677;28;19936;-81
2021/08/05 10:47:53;;;;;;;;;;;;;;;36.63;25.21;98316.00;5029496;28;19913;-84
2021/08/05 10:50:20;;;;;;;;;;;;;;;36.66;25.92;98298.38;5029637;28;20368;-88
2021/08/05 10:52:47;;;;;;;;;;;;;;;36.72;25.68;98299.25;5033158;28;20300;-86
2021/08/05 10:55:16;;;;;;;;;;;;;;;36.75;24.85;98292.72;5033513;28;20000;-89
2021/08/05 10:57:42;;;;;;;;;;;;;;;36.80;24.39;98278.13;5033703;28;19913;-89
2021/08/05 11:00:15;;;;;;;;;;;;;;;36.89;24.93;98282.13;5033321;28;19920;-85
2021/08/05 11:02:51;;;;;;;;;;;;;;;36.98;25.10;98277.28;5033289;28;19961;-89
2021/08/05 11:05:25;;;;;;;;;;;;;;;37.07;24.74;98272.88;5033352;28;19913;-89
2021/08/05 11:07:54;;;;;;;;;;;;;;;37.15;24.53;98272.03;5033524;28;19913;-88
2021/08/05 11:10:23;;;;;;;;;;;;;;;37.21;24.09;98265.78;5033087;28;19917;-82
2021/08/05 11:12:57;;;;;;;;;;;;;;;37.23;24.05;98250.16;5034593;28;19913;-88
2021/08/05 11:18:10;;;;;;;;;;;;;;;37.37;23.79;98240.28;5034610;28;20309;-87
2021/08/05 11:20:44;;;;;;;;;;;;;;;37.41;23.04;98232.47;5033171;28;20023;-86
2021/08/05 11:23:25;;;;;;;;;;;;;;;37.47;22.85;98238.16;5032972;28;19917;-83
2021/08/05 11:25:53;;;;;;;;;;;;;;;37.52;22.65;98229.13;5032619;28;19921;-85
2021/08/05 11:28:22;;;;;;;;;;;;;;;37.58;22.77;98218.81;5032862;28;19916;-87
2021/08/05 11:30:51;;;;;;;;;;;;;;;37.66;22.73;98213.66;5033019;28;19945;-90
2021/08/05 11:33:35;;;;;;;;;;;;;;;37.77;22.42;98213.81;5032857;28;19920;-90
2021/08/05 11:36:22;;;;;;;;;;;;;;;37.87;22.22;98211.72;5032772;28;19916;-90
2021/08/05 11:38:57;;;;;;;;;;;;;;;37.95;21.93;98214.88;5032867;28;19920;-86
2021/08/05 11:41:55;;;;;;;;;;;;;;;38.01;21.78;98203.78;5032652;28;19970;-82
2021/08/05 11:44:34;;;;;;;;;;;;;;;37.99;21.62;98190.34;5010155;28;19916;-88
2021/08/05 11:47:06;;;;;;;;;;;;;;;37.98;21.65;98180.41;5032833;28;20388;-90
2021/08/05 11:49:32;;;;;;;;;;;;;;;38.04;21.90;98194.44;5033057;28;20289;-85
2021/08/05 11:51:58;;;;;;;;;;;;;;;38.04;21.34;98186.06;5032377;28;19963;-81
2021/08/05 11:54:23;;;;;;;;;;;;;;;38.04;21.33;98181.28;5032459;28;19949;-80
2021/08/05 11:57:02;;;;;;;;;;;;;;;38.03;21.03;98160.19;5032589;28;19936;-89
2021/08/05 11:59:38;;;;;;;;;;;;;;;38.08;21.05;98181.06;5032292;28;19936;-87
2021/08/05 12:02:06;;;;;;;;;;;;;;;38.08;20.98;98176.25;5032332;28;19913;-84
2021/08/05 12:04:32;;;;;;;;;;;;;;;38.10;20.80;98162.56;5032706;28;19932;-88
2021/08/05 12:07:16;;;;;;;;;;;;;;;38.13;20.69;98155.25;5032624;28;20007;-89
2021/08/05 12:09:41;;;;;;;;;;;;;;;38.20;21.22;98151.28;5032387;28;19913;-91
2021/08/05 12:12:07;;;;;;;;;;;;;;;38.26;21.07;98140.97;5032418;28;20308;-90
2021/08/05 12:14:33;;;;;;;;;;;;;;;38.32;20.70;98147.41;5032176;28;19913;-85
2021/08/05 12:19:48;;;;;;;;;;;;;;;38.42;20.78;98137.63;5033722;28;19913;-90
2021/08/05 12:22:14;;;;;;;;;;;;;;;38.52;20.26;98135.44;5031711;28;19967;-92
2021/08/05 12:24:43;;;;;;;;;;;;;;;38.58;20.15;98133.47;5032182;28;19921;-91
2021/08/05 12:27:09;;;;;;;;;;;;;;;38.66;19.77;98124.69;5031395;28;19917;-92
2021/08/05 12:29:34;;;;;;;;;;;;;;;38.71;19.49;98118.38;5031944;28;19913;-88
2021/08/05 12:32:06;;;;;;;;;;;;;;;38.77;19.30;98122.03;5031849;28;19918;-88
2021/08/05 12:34:31;;;;;;;;;;;;;;;38.80;19.25;98112.66;5031789;28;20012;-89
2021/08/05 12:37:10;;;;;;;;;;;;;;;38.86;18.83;98095.97;5031599;28;20376;-87
2021/08/05 12:39:35;;;;;;;;;;;;;;;38.91;18.85;98109.22;5032056;28;19913;-88
2021/08/05 12:42:01;;;;;;;;;;;;;;;38.95;18.68;98101.38;5032185;28;19924;-89
2021/08/05 12:44:31;;;;;;;;;;;;;;;39.01;18.54;98088.22;5034057;28;20012;-90
2021/08/05 12:46:58;;;;;;;;;;;;;;;39.03;19.01;98077.31;5031695;28;19913;-89
2021/08/05 12:49:31;;;;;;;;;;;;;;;39.06;18.74;98069.97;5032034;28;19921;-88
2021/08/05 12:51:57;;;;;;;;;;;;;;;39.10;18.58;98075.31;5031845;28;19948;-82
2021/08/05 12:54:22;;;;;;;;;;;;;;;39.06;18.83;98073.53;5031364;28;20398;-82